Terminal Aerodrome Forecast
Issued by NWS

Home | Current Version | Previous Version | Graphics & Text | Print | Product List | Glossary Off
Versions: 1 2 3 4 5 6 7 8 9 10 11 12 13 14 15 16 17 18 19 20 21 22 23 24 25 26 27 28 29 30 31 32 33 34 35 36 37 38 39 40 41 42 43 44 45 46 47 48 49

808
FTUS43 KDDC 191720
TAFHYS
TAF
KHYS 191720Z 1918/2018 14010G24KT 6SM BR SCT110
     FM200200 16015G23KT 6SM BR VCSH OVC020
     FM200300 16015G24KT 5SM BR VCSH OVC008
     FM200500 17014G25KT 3SM BR OVC003
     FM200600 17013G24KT 2SM BR BKN008
     FM201100 21011KT 2SM BR OVC015
     FM201200 22011KT 3SM BR BKN030=

USA.gov is the U.S. government's official web portal to all federal, state and local government web resources and services.